SJX847 RJFT-RCTP
Flight info
| Callsign | SJX847 |
|---|---|
| Flight time | 2h 5m |
| Altitude | 38000 |
| Route | MIFNE HKC A1 DRAKE DRAKE1A |
| Aircraft | A359/H-SDE2E3GHIJ3J4J5LM1ORWXY/LB1D1 |
Departure
| Time | 2026-04-24 01:35 |
|---|---|
| Airport | Kumamoto Airport (RJFT) |
Arrival
| Time | 2026-04-24 03:41 |
|---|---|
| Airport | Taiwan Taoyuan International Airport (RCTP) |
| Time | Latitude | Longitude | Altitude | Speed | Heading |
|---|---|---|---|---|---|
| 2026-04-24 01:22 | 32.83590 | 130.85950 | 647 ft | 0 kts | 154° |
| 2026-04-24 01:25 | 32.83596 | 130.85946 | 650 ft | 4 kts | 154° |
| 2026-04-24 01:25 | 32.83621 | 130.85932 | 652 ft | 4 kts | 154° |
| 2026-04-24 01:25 | 32.83645 | 130.85918 | 654 ft | 4 kts | 154° |
| 2026-04-24 01:26 | 32.83670 | 130.85904 | 655 ft | 4 kts | 154° |
| 2026-04-24 01:26 | 32.83690 | 130.85894 | 653 ft | 4 kts | 180° |
| 2026-04-24 01:26 | 32.83709 | 130.85905 | 654 ft | 4 kts | 242° |
| 2026-04-24 01:26 | 32.83718 | 130.85928 | 652 ft | 0 kts | 244° |
| 2026-04-24 01:27 | 32.83720 | 130.85931 | 652 ft | 0 kts | 244° |
| 2026-04-24 01:27 | 32.83723 | 130.85934 | 651 ft | 0 kts | 244° |
| 2026-04-24 01:27 | 32.83725 | 130.85937 | 652 ft | 0 kts | 244° |
| 2026-04-24 01:27 | 32.83727 | 130.85940 | 651 ft | 0 kts | 244° |
| 2026-04-24 01:28 | 32.83728 | 130.85942 | 654 ft | 0 kts | 244° |
| 2026-04-24 01:30 | 32.83728 | 130.85941 | 654 ft | 0 kts | 244° |
| 2026-04-24 01:31 | 32.83721 | 130.85926 | 653 ft | 5 kts | 241° |
| 2026-04-24 01:31 | 32.83695 | 130.85867 | 653 ft | 11 kts | 243° |
| 2026-04-24 01:31 | 32.83652 | 130.85764 | 655 ft | 17 kts | 244° |
| 2026-04-24 01:31 | 32.83593 | 130.85616 | 651 ft | 23 kts | 244° |
| 2026-04-24 01:32 | 32.83524 | 130.85445 | 653 ft | 22 kts | 244° |
| 2026-04-24 01:32 | 32.83451 | 130.85260 | 649 ft | 26 kts | 244° |
| 2026-04-24 01:32 | 32.83378 | 130.85081 | 644 ft | 23 kts | 244° |
| 2026-04-24 01:32 | 32.83304 | 130.84894 | 641 ft | 23 kts | 244° |
| 2026-04-24 01:33 | 32.83231 | 130.84713 | 635 ft | 27 kts | 244° |
| 2026-04-24 01:33 | 32.83150 | 130.84511 | 636 ft | 28 kts | 244° |
| 2026-04-24 01:33 | 32.83070 | 130.84314 | 630 ft | 24 kts | 244° |
| 2026-04-24 01:33 | 32.83036 | 130.84160 | 628 ft | 18 kts | 293° |
| 2026-04-24 01:34 | 32.83152 | 130.84102 | 627 ft | 18 kts | 22° |
| 2026-04-24 01:34 | 32.83213 | 130.84214 | 633 ft | 18 kts | 64° |
| 2026-04-24 01:34 | 32.83328 | 130.84498 | 631 ft | 67 kts | 64° |
| 2026-04-24 01:34 | 32.83614 | 130.85209 | 647 ft | 121 kts | 64° |
| 2026-04-24 01:35 | 32.84031 | 130.86253 | 781 ft | 154 kts | 64° |
| 2026-04-24 01:35 | 32.84450 | 130.87413 | 1409 ft | 149 kts | 68° |
| 2026-04-24 01:35 | 32.84875 | 130.88547 | 2024 ft | 151 kts | 58° |
| 2026-04-24 01:35 | 32.85747 | 130.89302 | 2294 ft | 172 kts | 14° |
| 2026-04-24 01:36 | 32.86986 | 130.88958 | 2506 ft | 205 kts | 327° |
| 2026-04-24 01:36 | 32.87811 | 130.87462 | 3002 ft | 234 kts | 287° |
| 2026-04-24 01:36 | 32.88255 | 130.85516 | 3746 ft | 253 kts | 294° |
| 2026-04-24 01:36 | 32.89084 | 130.83619 | 4482 ft | 264 kts | 306° |
| 2026-04-24 01:37 | 32.89992 | 130.81671 | 5231 ft | 275 kts | 292° |
| 2026-04-24 01:37 | 32.90256 | 130.79421 | 5919 ft | 279 kts | 262° |
| 2026-04-24 01:37 | 32.89641 | 130.77273 | 6871 ft | 273 kts | 244° |
| 2026-04-24 01:37 | 32.88566 | 130.75428 | 7671 ft | 273 kts | 224° |
| 2026-04-24 01:38 | 32.86952 | 130.74263 | 8462 ft | 274 kts | 198° |
| 2026-04-24 01:38 | 32.85057 | 130.73995 | 9264 ft | 277 kts | 179° |
| 2026-04-24 01:38 | 32.83121 | 130.74167 | 10020 ft | 280 kts | 176° |
| 2026-04-24 01:38 | 32.81135 | 130.74387 | 10474 ft | 295 kts | 177° |
| 2026-04-24 01:39 | 32.79030 | 130.74607 | 10788 ft | 313 kts | 177° |
| 2026-04-24 01:39 | 32.76793 | 130.74829 | 11112 ft | 331 kts | 178° |
| 2026-04-24 01:39 | 32.74445 | 130.75056 | 11450 ft | 346 kts | 178° |
| 2026-04-24 01:39 | 32.72021 | 130.75290 | 12006 ft | 353 kts | 178° |
| 2026-04-24 01:40 | 32.69558 | 130.75526 | 12656 ft | 357 kts | 179° |
| 2026-04-24 01:40 | 32.67071 | 130.75763 | 13313 ft | 361 kts | 179° |
| 2026-04-24 01:40 | 32.64559 | 130.75947 | 13916 ft | 363 kts | 183° |
| 2026-04-24 01:40 | 32.62039 | 130.75785 | 14490 ft | 363 kts | 189° |
| 2026-04-24 01:41 | 32.59529 | 130.75408 | 15117 ft | 365 kts | 193° |
| 2026-04-24 01:41 | 32.57018 | 130.74928 | 15763 ft | 366 kts | 194° |
| 2026-04-24 01:41 | 32.54503 | 130.74406 | 16483 ft | 369 kts | 194° |
| 2026-04-24 01:41 | 32.51967 | 130.73876 | 17188 ft | 371 kts | 195° |
| 2026-04-24 01:42 | 32.49410 | 130.73354 | 17829 ft | 375 kts | 195° |
| 2026-04-24 01:42 | 32.46818 | 130.72842 | 18381 ft | 379 kts | 195° |
| 2026-04-24 01:42 | 32.44213 | 130.72340 | 18975 ft | 379 kts | 195° |
| 2026-04-24 01:42 | 32.41604 | 130.71843 | 19598 ft | 380 kts | 196° |
| 2026-04-24 01:43 | 32.38987 | 130.71347 | 20218 ft | 382 kts | 197° |
| 2026-04-24 01:43 | 32.36360 | 130.70845 | 20837 ft | 382 kts | 197° |
| 2026-04-24 01:43 | 32.33736 | 130.70348 | 21459 ft | 381 kts | 198° |
| 2026-04-24 01:43 | 32.31108 | 130.69848 | 21994 ft | 385 kts | 198° |
| 2026-04-24 01:44 | 32.28452 | 130.69345 | 22518 ft | 387 kts | 198° |
| 2026-04-24 01:44 | 32.25799 | 130.68848 | 23238 ft | 385 kts | 199° |
| 2026-04-24 01:44 | 32.23157 | 130.68351 | 23820 ft | 385 kts | 199° |
| 2026-04-24 01:44 | 32.20514 | 130.67845 | 24323 ft | 385 kts | 199° |
| 2026-04-24 01:45 | 32.17895 | 130.67345 | 24767 ft | 388 kts | 199° |
| 2026-04-24 01:45 | 32.15223 | 130.66840 | 25233 ft | 389 kts | 199° |
| 2026-04-24 01:45 | 32.12549 | 130.66335 | 25739 ft | 390 kts | 199° |
| 2026-04-24 01:45 | 32.09827 | 130.65823 | 26198 ft | 392 kts | 199° |
| 2026-04-24 01:46 | 32.07168 | 130.65324 | 26704 ft | 392 kts | 200° |
| 2026-04-24 01:46 | 32.04468 | 130.64817 | 27167 ft | 394 kts | 200° |
| 2026-04-24 01:46 | 32.01757 | 130.64306 | 27603 ft | 396 kts | 200° |
| 2026-04-24 01:46 | 31.99033 | 130.63791 | 28032 ft | 398 kts | 200° |
| 2026-04-24 01:47 | 31.96296 | 130.63274 | 28454 ft | 399 kts | 200° |
| 2026-04-24 01:47 | 31.93541 | 130.62755 | 28855 ft | 401 kts | 200° |
| 2026-04-24 01:47 | 31.90778 | 130.62234 | 29314 ft | 403 kts | 200° |
| 2026-04-24 01:47 | 31.88007 | 130.61712 | 29697 ft | 405 kts | 200° |
| 2026-04-24 01:48 | 31.85217 | 130.61187 | 30079 ft | 407 kts | 200° |
| 2026-04-24 01:48 | 31.82414 | 130.60661 | 30388 ft | 409 kts | 200° |
| 2026-04-24 01:48 | 31.79594 | 130.60133 | 30693 ft | 412 kts | 200° |
| 2026-04-24 01:48 | 31.76764 | 130.59584 | 30992 ft | 411 kts | 202° |
| 2026-04-24 01:49 | 31.74020 | 130.58751 | 31283 ft | 403 kts | 208° |
| 2026-04-24 01:49 | 31.71454 | 130.57516 | 31587 ft | 395 kts | 215° |
| 2026-04-24 01:49 | 31.69106 | 130.55879 | 31771 ft | 391 kts | 222° |
| 2026-04-24 01:49 | 31.67022 | 130.53859 | 32021 ft | 387 kts | 229° |
| 2026-04-24 01:50 | 31.65221 | 130.51525 | 32303 ft | 385 kts | 233° |
| 2026-04-24 01:50 | 31.63546 | 130.49065 | 32559 ft | 386 kts | 235° |
| 2026-04-24 01:50 | 31.61911 | 130.46566 | 32871 ft | 386 kts | 236° |
| 2026-04-24 01:50 | 31.60292 | 130.44074 | 33347 ft | 382 kts | 236° |
| 2026-04-24 01:51 | 31.58687 | 130.41606 | 33775 ft | 379 kts | 236° |
| 2026-04-24 01:51 | 31.57086 | 130.39157 | 34117 ft | 378 kts | 236° |
| 2026-04-24 01:51 | 31.55485 | 130.36721 | 34429 ft | 376 kts | 236° |
| 2026-04-24 01:51 | 31.53887 | 130.34299 | 34742 ft | 375 kts | 236° |
| 2026-04-24 01:52 | 31.52290 | 130.31887 | 35026 ft | 374 kts | 236° |
| 2026-04-24 01:52 | 31.50697 | 130.29484 | 35305 ft | 373 kts | 236° |
| 2026-04-24 01:52 | 31.49108 | 130.27089 | 35588 ft | 371 kts | 236° |
| 2026-04-24 01:52 | 31.47524 | 130.24704 | 35884 ft | 370 kts | 235° |
| 2026-04-24 01:53 | 31.45949 | 130.22333 | 36212 ft | 368 kts | 235° |
| 2026-04-24 01:53 | 31.44383 | 130.19976 | 36479 ft | 366 kts | 235° |
| 2026-04-24 01:53 | 31.42819 | 130.17622 | 36677 ft | 366 kts | 235° |
| 2026-04-24 01:53 | 31.41254 | 130.15266 | 36794 ft | 367 kts | 235° |
| 2026-04-24 01:54 | 31.39686 | 130.12909 | 37043 ft | 367 kts | 235° |
| 2026-04-24 01:54 | 31.38121 | 130.10559 | 37267 ft | 365 kts | 235° |
| 2026-04-24 01:54 | 31.36564 | 130.08216 | 37509 ft | 364 kts | 236° |
| 2026-04-24 01:54 | 31.35022 | 130.05875 | 37724 ft | 363 kts | 236° |
| 2026-04-24 01:55 | 31.33485 | 130.03533 | 37884 ft | 363 kts | 236° |
| 2026-04-24 01:55 | 31.30397 | 129.98829 | 37911 ft | 364 kts | 236° |
| 2026-04-24 01:56 | 31.27298 | 129.94133 | 37913 ft | 366 kts | 235° |
| 2026-04-24 01:56 | 31.24182 | 129.89464 | 37908 ft | 367 kts | 235° |
| 2026-04-24 01:57 | 31.21038 | 129.84767 | 37912 ft | 367 kts | 235° |
| 2026-04-24 01:57 | 31.17892 | 129.80068 | 37934 ft | 367 kts | 235° |
| 2026-04-24 01:58 | 31.14754 | 129.75383 | 37907 ft | 366 kts | 235° |
| 2026-04-24 01:58 | 31.11608 | 129.70690 | 37914 ft | 367 kts | 235° |
| 2026-04-24 01:59 | 31.08458 | 129.65998 | 37916 ft | 367 kts | 235° |
| 2026-04-24 01:59 | 31.05307 | 129.61309 | 37916 ft | 367 kts | 235° |
| 2026-04-24 02:00 | 31.02155 | 129.56625 | 37930 ft | 367 kts | 235° |
| 2026-04-24 02:00 | 30.99001 | 129.51943 | 37920 ft | 368 kts | 235° |
| 2026-04-24 02:01 | 30.95835 | 129.47248 | 37921 ft | 369 kts | 235° |
| 2026-04-24 02:01 | 30.92664 | 129.42552 | 37919 ft | 369 kts | 235° |
| 2026-04-24 02:02 | 30.89487 | 129.37855 | 37922 ft | 369 kts | 235° |
| 2026-04-24 02:02 | 30.86310 | 129.33161 | 37922 ft | 369 kts | 235° |
| 2026-04-24 02:03 | 30.81536 | 129.26119 | 37924 ft | 369 kts | 235° |
| 2026-04-24 02:03 | 30.78353 | 129.21431 | 37923 ft | 369 kts | 235° |
| 2026-04-24 02:04 | 30.75209 | 129.16758 | 37924 ft | 369 kts | 236° |
| 2026-04-24 02:04 | 30.72104 | 129.12002 | 37963 ft | 370 kts | 236° |
| 2026-04-24 02:05 | 30.68983 | 129.07216 | 37925 ft | 371 kts | 236° |
| 2026-04-24 02:05 | 30.65860 | 129.02458 | 37928 ft | 370 kts | 236° |
| 2026-04-24 02:06 | 30.62733 | 128.97710 | 37923 ft | 370 kts | 236° |
| 2026-04-24 02:06 | 30.59602 | 128.92965 | 37929 ft | 370 kts | 236° |
| 2026-04-24 02:07 | 30.56462 | 128.88210 | 37959 ft | 373 kts | 236° |
| 2026-04-24 02:07 | 30.53315 | 128.83452 | 37933 ft | 371 kts | 236° |
| 2026-04-24 02:08 | 30.50177 | 128.78713 | 37928 ft | 370 kts | 236° |
| 2026-04-24 02:08 | 30.47040 | 128.73980 | 37934 ft | 370 kts | 236° |
| 2026-04-24 02:09 | 30.43901 | 128.69249 | 37926 ft | 370 kts | 236° |
| 2026-04-24 02:09 | 30.40743 | 128.64493 | 37960 ft | 373 kts | 236° |
| 2026-04-24 02:10 | 30.37589 | 128.59754 | 37929 ft | 371 kts | 236° |
| 2026-04-24 02:10 | 30.34446 | 128.55034 | 37949 ft | 370 kts | 236° |
| 2026-04-24 02:11 | 30.31301 | 128.50317 | 37934 ft | 370 kts | 236° |
| 2026-04-24 02:11 | 30.28156 | 128.45605 | 37942 ft | 372 kts | 236° |
| 2026-04-24 02:12 | 30.24978 | 128.40847 | 37938 ft | 373 kts | 236° |
| 2026-04-24 02:12 | 30.21786 | 128.36076 | 37946 ft | 378 kts | 236° |
| 2026-04-24 02:13 | 30.18566 | 128.31266 | 37945 ft | 383 kts | 236° |
| 2026-04-24 02:13 | 30.15284 | 128.26374 | 37944 ft | 386 kts | 236° |
| 2026-04-24 02:14 | 30.11983 | 128.21460 | 37944 ft | 388 kts | 236° |
| 2026-04-24 02:14 | 30.08673 | 128.16539 | 37955 ft | 388 kts | 235° |
| 2026-04-24 02:15 | 30.05364 | 128.11624 | 37951 ft | 387 kts | 235° |
| 2026-04-24 02:15 | 30.02056 | 128.06718 | 37947 ft | 387 kts | 235° |
| 2026-04-24 02:16 | 29.99282 | 128.02607 | 37941 ft | 388 kts | 236° |
| 2026-04-24 02:16 | 29.95961 | 127.97688 | 37955 ft | 390 kts | 236° |
| 2026-04-24 02:17 | 29.92621 | 127.92748 | 37954 ft | 391 kts | 235° |
| 2026-04-24 02:17 | 29.89277 | 127.87812 | 37960 ft | 390 kts | 235° |
| 2026-04-24 02:18 | 29.85933 | 127.82886 | 37957 ft | 390 kts | 235° |
| 2026-04-24 02:18 | 29.82453 | 127.78114 | 37958 ft | 393 kts | 233° |
| 2026-04-24 02:19 | 29.78832 | 127.73342 | 37958 ft | 394 kts | 233° |
| 2026-04-24 02:19 | 29.75261 | 127.68610 | 37964 ft | 394 kts | 233° |
| 2026-04-24 02:20 | 29.71692 | 127.63842 | 37963 ft | 393 kts | 233° |
| 2026-04-24 02:20 | 29.68138 | 127.59086 | 37955 ft | 388 kts | 233° |
| 2026-04-24 02:21 | 29.64659 | 127.54438 | 37965 ft | 381 kts | 233° |
| 2026-04-24 02:21 | 29.61206 | 127.49823 | 37969 ft | 380 kts | 233° |
| 2026-04-24 02:22 | 29.57759 | 127.45214 | 37967 ft | 379 kts | 233° |
| 2026-04-24 02:22 | 29.54465 | 127.40499 | 37968 ft | 378 kts | 235° |
| 2026-04-24 02:23 | 29.51239 | 127.35725 | 37970 ft | 380 kts | 236° |
| 2026-04-24 02:23 | 29.47971 | 127.30942 | 37971 ft | 381 kts | 235° |
| 2026-04-24 02:24 | 29.44680 | 127.26178 | 37973 ft | 381 kts | 235° |
| 2026-04-24 02:24 | 29.41382 | 127.21422 | 37983 ft | 380 kts | 235° |
| 2026-04-24 02:25 | 29.38098 | 127.16695 | 37927 ft | 378 kts | 235° |
| 2026-04-24 02:25 | 29.34805 | 127.11955 | 37983 ft | 382 kts | 235° |
| 2026-04-24 02:26 | 29.31490 | 127.07187 | 37979 ft | 383 kts | 235° |
| 2026-04-24 02:26 | 29.28174 | 127.02426 | 37980 ft | 383 kts | 235° |
| 2026-04-24 02:27 | 29.24854 | 126.97664 | 37979 ft | 382 kts | 235° |
| 2026-04-24 02:27 | 29.21578 | 126.92972 | 37987 ft | 380 kts | 235° |
| 2026-04-24 02:28 | 29.18267 | 126.88233 | 37984 ft | 381 kts | 235° |
| 2026-04-24 02:28 | 29.14951 | 126.83492 | 37976 ft | 382 kts | 235° |
| 2026-04-24 02:29 | 29.11632 | 126.78754 | 37989 ft | 382 kts | 235° |
| 2026-04-24 02:29 | 29.08314 | 126.74022 | 37993 ft | 382 kts | 234° |
| 2026-04-24 02:30 | 29.04998 | 126.69299 | 37986 ft | 381 kts | 235° |
| 2026-04-24 02:30 | 29.01643 | 126.64522 | 37993 ft | 383 kts | 235° |
| 2026-04-24 02:31 | 28.98303 | 126.59777 | 37988 ft | 383 kts | 234° |
| 2026-04-24 02:31 | 28.94939 | 126.55053 | 37992 ft | 384 kts | 234° |
| 2026-04-24 02:32 | 28.91480 | 126.50404 | 37992 ft | 384 kts | 233° |
| 2026-04-24 02:32 | 28.88035 | 126.45804 | 37987 ft | 384 kts | 233° |
| 2026-04-24 02:33 | 28.84571 | 126.41156 | 37993 ft | 385 kts | 233° |
| 2026-04-24 02:33 | 28.81088 | 126.36470 | 37992 ft | 385 kts | 233° |
| 2026-04-24 02:34 | 28.77649 | 126.31845 | 37992 ft | 385 kts | 233° |
| 2026-04-24 02:34 | 28.74188 | 126.27196 | 37993 ft | 385 kts | 233° |
| 2026-04-24 02:35 | 28.70715 | 126.22536 | 38000 ft | 387 kts | 233° |
| 2026-04-24 02:35 | 28.67228 | 126.17863 | 37997 ft | 387 kts | 233° |
| 2026-04-24 02:36 | 28.63738 | 126.13194 | 37994 ft | 387 kts | 233° |
| 2026-04-24 02:36 | 28.60309 | 126.08473 | 37996 ft | 386 kts | 235° |
| 2026-04-24 02:37 | 28.56962 | 126.03688 | 37997 ft | 386 kts | 235° |
| 2026-04-24 02:37 | 28.53607 | 125.98909 | 37999 ft | 387 kts | 235° |
| 2026-04-24 02:38 | 28.50236 | 125.94149 | 38001 ft | 386 kts | 234° |
| 2026-04-24 02:38 | 28.46857 | 125.89397 | 38001 ft | 386 kts | 234° |
| 2026-04-24 02:39 | 28.43476 | 125.84651 | 38004 ft | 386 kts | 234° |
| 2026-04-24 02:39 | 28.40095 | 125.79907 | 37975 ft | 386 kts | 234° |
| 2026-04-24 02:40 | 28.36701 | 125.75149 | 38028 ft | 389 kts | 234° |
| 2026-04-24 02:40 | 28.33299 | 125.70385 | 38005 ft | 387 kts | 234° |
| 2026-04-24 02:41 | 28.29915 | 125.65655 | 38003 ft | 387 kts | 234° |
| 2026-04-24 02:41 | 28.26521 | 125.60913 | 38004 ft | 387 kts | 234° |
| 2026-04-24 02:42 | 28.23130 | 125.56181 | 37981 ft | 387 kts | 234° |
| 2026-04-24 02:42 | 28.19728 | 125.51437 | 38012 ft | 389 kts | 234° |
| 2026-04-24 02:43 | 28.16304 | 125.46671 | 38008 ft | 388 kts | 234° |
| 2026-04-24 02:43 | 28.12921 | 125.41967 | 38012 ft | 387 kts | 234° |
| 2026-04-24 02:44 | 28.09522 | 125.37245 | 38012 ft | 387 kts | 234° |
| 2026-04-24 02:44 | 28.06116 | 125.32519 | 38015 ft | 387 kts | 234° |
| 2026-04-24 02:45 | 28.02704 | 125.27788 | 38014 ft | 390 kts | 234° |
| 2026-04-24 02:45 | 27.99267 | 125.23027 | 38032 ft | 391 kts | 234° |
| 2026-04-24 02:46 | 27.95833 | 125.18281 | 38018 ft | 389 kts | 234° |
| 2026-04-24 02:46 | 27.92410 | 125.13554 | 38021 ft | 389 kts | 234° |
| 2026-04-24 02:47 | 27.88983 | 125.08823 | 38021 ft | 388 kts | 234° |
| 2026-04-24 02:47 | 27.85553 | 125.04094 | 38025 ft | 390 kts | 234° |
| 2026-04-24 02:48 | 27.82107 | 124.99348 | 38031 ft | 391 kts | 234° |
| 2026-04-24 02:48 | 27.78656 | 124.94604 | 38029 ft | 390 kts | 234° |
| 2026-04-24 02:49 | 27.75218 | 124.89881 | 38024 ft | 389 kts | 234° |
| 2026-04-24 02:49 | 27.71775 | 124.85156 | 38027 ft | 389 kts | 234° |
| 2026-04-24 02:50 | 27.68330 | 124.80432 | 38035 ft | 392 kts | 234° |
| 2026-04-24 02:50 | 27.64860 | 124.75679 | 38032 ft | 393 kts | 234° |
| 2026-04-24 02:51 | 27.61381 | 124.70924 | 38035 ft | 392 kts | 234° |
| 2026-04-24 02:51 | 27.57920 | 124.66198 | 38035 ft | 391 kts | 234° |
| 2026-04-24 02:52 | 27.54465 | 124.61467 | 38034 ft | 391 kts | 234° |
| 2026-04-24 02:52 | 27.51007 | 124.56739 | 38036 ft | 393 kts | 234° |
| 2026-04-24 02:53 | 27.47526 | 124.51987 | 38035 ft | 394 kts | 234° |
| 2026-04-24 02:53 | 27.44032 | 124.47227 | 38051 ft | 394 kts | 234° |
| 2026-04-24 02:54 | 27.40546 | 124.42485 | 38037 ft | 393 kts | 234° |
| 2026-04-24 02:54 | 27.37067 | 124.37756 | 38036 ft | 392 kts | 234° |
| 2026-04-24 02:55 | 27.33576 | 124.33013 | 38032 ft | 393 kts | 234° |
| 2026-04-24 02:55 | 27.30079 | 124.28268 | 38041 ft | 394 kts | 234° |
| 2026-04-24 02:56 | 27.26573 | 124.23518 | 38039 ft | 394 kts | 234° |
| 2026-04-24 02:56 | 27.23069 | 124.18775 | 38043 ft | 394 kts | 234° |
| 2026-04-24 02:57 | 27.19571 | 124.14045 | 38041 ft | 393 kts | 234° |
| 2026-04-24 02:57 | 27.16073 | 124.09320 | 38026 ft | 394 kts | 234° |
| 2026-04-24 02:58 | 27.12556 | 124.04572 | 38042 ft | 397 kts | 234° |
| 2026-04-24 02:58 | 27.09620 | 124.00615 | 38049 ft | 397 kts | 234° |
| 2026-04-24 02:59 | 27.05491 | 123.95101 | 38076 ft | 397 kts | 234° |
| 2026-04-24 02:59 | 27.01934 | 123.90384 | 38052 ft | 395 kts | 234° |
| 2026-04-24 03:00 | 26.98391 | 123.85690 | 38009 ft | 394 kts | 234° |
| 2026-04-24 03:00 | 26.95414 | 123.81742 | 38050 ft | 398 kts | 234° |
| 2026-04-24 03:01 | 26.91839 | 123.77003 | 38052 ft | 398 kts | 234° |
| 2026-04-24 03:01 | 26.88256 | 123.72261 | 38051 ft | 399 kts | 234° |
| 2026-04-24 03:02 | 26.84695 | 123.67556 | 38071 ft | 398 kts | 234° |
| 2026-04-24 03:02 | 26.81095 | 123.62803 | 38057 ft | 397 kts | 234° |
| 2026-04-24 03:03 | 26.77526 | 123.58095 | 38056 ft | 397 kts | 234° |
| 2026-04-24 03:03 | 26.73975 | 123.53416 | 38056 ft | 397 kts | 234° |
| 2026-04-24 03:04 | 26.70408 | 123.48720 | 38056 ft | 397 kts | 234° |
| 2026-04-24 03:04 | 26.66826 | 123.44010 | 38056 ft | 397 kts | 234° |
| 2026-04-24 03:05 | 26.63246 | 123.39316 | 38054 ft | 397 kts | 234° |
| 2026-04-24 03:05 | 26.59664 | 123.34616 | 38054 ft | 398 kts | 234° |
| 2026-04-24 03:06 | 26.56068 | 123.29898 | 38054 ft | 399 kts | 234° |
| 2026-04-24 03:06 | 26.52463 | 123.25178 | 38054 ft | 399 kts | 234° |
| 2026-04-24 03:07 | 26.48854 | 123.20460 | 38054 ft | 399 kts | 234° |
| 2026-04-24 03:07 | 26.45247 | 123.15749 | 38074 ft | 399 kts | 234° |
| 2026-04-24 03:08 | 26.39840 | 123.08697 | 38064 ft | 400 kts | 234° |
| 2026-04-24 03:09 | 26.36208 | 123.03963 | 38059 ft | 402 kts | 234° |
| 2026-04-24 03:09 | 26.32569 | 122.99230 | 38043 ft | 402 kts | 234° |
| 2026-04-24 03:10 | 26.28950 | 122.94536 | 38036 ft | 402 kts | 234° |
| 2026-04-24 03:10 | 26.25311 | 122.89808 | 38058 ft | 402 kts | 234° |
| 2026-04-24 03:11 | 26.21675 | 122.85091 | 38052 ft | 401 kts | 234° |
| 2026-04-24 03:11 | 26.18033 | 122.80370 | 38054 ft | 403 kts | 234° |
| 2026-04-24 03:12 | 26.14379 | 122.75642 | 38050 ft | 403 kts | 234° |
| 2026-04-24 03:12 | 26.10722 | 122.70916 | 38056 ft | 403 kts | 234° |
| 2026-04-24 03:13 | 26.07065 | 122.66194 | 38054 ft | 403 kts | 234° |
| 2026-04-24 03:13 | 26.03403 | 122.61470 | 38045 ft | 403 kts | 234° |
| 2026-04-24 03:14 | 25.99739 | 122.56749 | 38052 ft | 404 kts | 234° |
| 2026-04-24 03:14 | 25.96069 | 122.52026 | 38053 ft | 404 kts | 234° |
| 2026-04-24 03:15 | 25.92397 | 122.47305 | 38058 ft | 404 kts | 234° |
| 2026-04-24 03:15 | 25.88723 | 122.42583 | 38053 ft | 404 kts | 234° |
| 2026-04-24 03:16 | 25.85052 | 122.37868 | 38054 ft | 404 kts | 234° |
| 2026-04-24 03:16 | 25.81370 | 122.33144 | 38063 ft | 406 kts | 234° |
| 2026-04-24 03:17 | 25.77672 | 122.28406 | 38050 ft | 406 kts | 234° |
| 2026-04-24 03:17 | 25.73979 | 122.23680 | 38053 ft | 405 kts | 234° |
| 2026-04-24 03:18 | 25.70283 | 122.18955 | 38054 ft | 406 kts | 234° |
| 2026-04-24 03:18 | 25.66590 | 122.14237 | 37933 ft | 402 kts | 234° |
| 2026-04-24 03:18 | 25.64782 | 122.11932 | 37216 ft | 402 kts | 234° |
| 2026-04-24 03:19 | 25.62981 | 122.09492 | 36181 ft | 406 kts | 238° |
| 2026-04-24 03:19 | 25.61542 | 122.06826 | 35156 ft | 412 kts | 246° |
| 2026-04-24 03:19 | 25.60539 | 122.03854 | 34353 ft | 414 kts | 253° |
| 2026-04-24 03:19 | 25.59725 | 122.00730 | 33420 ft | 418 kts | 253° |
| 2026-04-24 03:20 | 25.58950 | 121.97649 | 32370 ft | 425 kts | 253° |
| 2026-04-24 03:20 | 25.58149 | 121.94472 | 31308 ft | 432 kts | 252° |
| 2026-04-24 03:20 | 25.57333 | 121.91251 | 30386 ft | 437 kts | 252° |
| 2026-04-24 03:20 | 25.56508 | 121.88009 | 29549 ft | 437 kts | 252° |
| 2026-04-24 03:21 | 25.55685 | 121.84781 | 28906 ft | 433 kts | 252° |
| 2026-04-24 03:21 | 25.54871 | 121.81593 | 28302 ft | 428 kts | 252° |
| 2026-04-24 03:21 | 25.54063 | 121.78436 | 27735 ft | 424 kts | 252° |
| 2026-04-24 03:21 | 25.53262 | 121.75313 | 27144 ft | 419 kts | 252° |
| 2026-04-24 03:22 | 25.52470 | 121.72223 | 26578 ft | 415 kts | 252° |
| 2026-04-24 03:22 | 25.51684 | 121.69164 | 26014 ft | 411 kts | 252° |
| 2026-04-24 03:22 | 25.50905 | 121.66133 | 25450 ft | 408 kts | 252° |
| 2026-04-24 03:22 | 25.50132 | 121.63130 | 24889 ft | 404 kts | 252° |
| 2026-04-24 03:23 | 25.49349 | 121.60154 | 24302 ft | 401 kts | 250° |
| 2026-04-24 03:23 | 25.48252 | 121.57343 | 23737 ft | 397 kts | 239° |
| 2026-04-24 03:23 | 25.46648 | 121.54884 | 23106 ft | 395 kts | 231° |
| 2026-04-24 03:23 | 25.44860 | 121.52577 | 22496 ft | 392 kts | 230° |
| 2026-04-24 03:24 | 25.43076 | 121.50314 | 21918 ft | 389 kts | 231° |
| 2026-04-24 03:24 | 25.41309 | 121.48067 | 21325 ft | 385 kts | 232° |
| 2026-04-24 03:24 | 25.39561 | 121.45839 | 20749 ft | 382 kts | 232° |
| 2026-04-24 03:24 | 25.37826 | 121.43625 | 20190 ft | 379 kts | 232° |
| 2026-04-24 03:25 | 25.36103 | 121.41427 | 19605 ft | 377 kts | 232° |
| 2026-04-24 03:25 | 25.34390 | 121.39240 | 19070 ft | 376 kts | 232° |
| 2026-04-24 03:25 | 25.32679 | 121.37056 | 18484 ft | 374 kts | 233° |
| 2026-04-24 03:25 | 25.30978 | 121.34887 | 17875 ft | 373 kts | 233° |
| 2026-04-24 03:26 | 25.29289 | 121.32732 | 17293 ft | 369 kts | 232° |
| 2026-04-24 03:26 | 25.27615 | 121.30599 | 16737 ft | 366 kts | 232° |
| 2026-04-24 03:26 | 25.25956 | 121.28483 | 16187 ft | 364 kts | 232° |
| 2026-04-24 03:26 | 25.24299 | 121.26372 | 15638 ft | 364 kts | 232° |
| 2026-04-24 03:27 | 25.22643 | 121.24262 | 15053 ft | 364 kts | 232° |
| 2026-04-24 03:27 | 25.20989 | 121.22156 | 14507 ft | 361 kts | 232° |
| 2026-04-24 03:27 | 25.19352 | 121.20076 | 13960 ft | 358 kts | 232° |
| 2026-04-24 03:27 | 25.17726 | 121.18010 | 13357 ft | 355 kts | 231° |
| 2026-04-24 03:28 | 25.16117 | 121.15966 | 12776 ft | 351 kts | 231° |
| 2026-04-24 03:28 | 25.14520 | 121.13937 | 12210 ft | 348 kts | 231° |
| 2026-04-24 03:28 | 25.12943 | 121.11936 | 11669 ft | 344 kts | 231° |
| 2026-04-24 03:28 | 25.11384 | 121.09957 | 11110 ft | 340 kts | 231° |
| 2026-04-24 03:29 | 25.09860 | 121.08032 | 10941 ft | 325 kts | 231° |
| 2026-04-24 03:29 | 25.08413 | 121.06194 | 10797 ft | 310 kts | 231° |
| 2026-04-24 03:29 | 25.07034 | 121.04441 | 10674 ft | 295 kts | 231° |
| 2026-04-24 03:29 | 25.05715 | 121.02765 | 10545 ft | 282 kts | 231° |
| 2026-04-24 03:30 | 25.04458 | 121.01169 | 10416 ft | 270 kts | 231° |
| 2026-04-24 03:30 | 25.03235 | 120.99614 | 10092 ft | 268 kts | 231° |
| 2026-04-24 03:30 | 25.02013 | 120.98072 | 9747 ft | 267 kts | 231° |
| 2026-04-24 03:30 | 25.00793 | 120.96526 | 9328 ft | 267 kts | 231° |
| 2026-04-24 03:31 | 24.99577 | 120.94980 | 8942 ft | 265 kts | 230° |
| 2026-04-24 03:31 | 24.98366 | 120.93444 | 8546 ft | 266 kts | 230° |
| 2026-04-24 03:31 | 24.97156 | 120.91911 | 8177 ft | 264 kts | 230° |
| 2026-04-24 03:31 | 24.95966 | 120.90413 | 7818 ft | 262 kts | 230° |
| 2026-04-24 03:32 | 24.94763 | 120.88896 | 7450 ft | 259 kts | 229° |
| 2026-04-24 03:32 | 24.93387 | 120.87636 | 7101 ft | 256 kts | 210° |
| 2026-04-24 03:32 | 24.91702 | 120.87112 | 6863 ft | 252 kts | 185° |
| 2026-04-24 03:32 | 24.89997 | 120.87438 | 6668 ft | 250 kts | 163° |
| 2026-04-24 03:33 | 24.88603 | 120.88501 | 6458 ft | 246 kts | 136° |
| 2026-04-24 03:33 | 24.87755 | 120.90087 | 6161 ft | 241 kts | 112° |
| 2026-04-24 03:33 | 24.87568 | 120.91919 | 5740 ft | 245 kts | 88° |
| 2026-04-24 03:33 | 24.88096 | 120.93688 | 5435 ft | 242 kts | 59° |
| 2026-04-24 03:34 | 24.89174 | 120.95013 | 5294 ft | 225 kts | 38° |
| 2026-04-24 03:34 | 24.90299 | 120.96182 | 5141 ft | 215 kts | 51° |
| 2026-04-24 03:34 | 24.91010 | 120.97577 | 4993 ft | 211 kts | 75° |
| 2026-04-24 03:34 | 24.91226 | 120.99152 | 4875 ft | 207 kts | 94° |
| 2026-04-24 03:35 | 24.91182 | 121.00755 | 4761 ft | 205 kts | 96° |
| 2026-04-24 03:35 | 24.91158 | 121.02309 | 4632 ft | 208 kts | 84° |
| 2026-04-24 03:35 | 24.91625 | 121.03802 | 4446 ft | 209 kts | 62° |
| 2026-04-24 03:35 | 24.92491 | 121.05084 | 4180 ft | 209 kts | 47° |
| 2026-04-24 03:36 | 24.93448 | 121.06288 | 3877 ft | 207 kts | 50° |
| 2026-04-24 03:36 | 24.94368 | 121.07499 | 3591 ft | 205 kts | 49° |
| 2026-04-24 03:36 | 24.95292 | 121.08672 | 3351 ft | 201 kts | 48° |
| 2026-04-24 03:36 | 24.96200 | 121.09821 | 3052 ft | 196 kts | 48° |
| 2026-04-24 03:37 | 24.97080 | 121.10939 | 2783 ft | 187 kts | 47° |
| 2026-04-24 03:37 | 24.97893 | 121.11971 | 2541 ft | 171 kts | 47° |
| 2026-04-24 03:37 | 24.98648 | 121.12927 | 2352 ft | 161 kts | 48° |
| 2026-04-24 03:37 | 24.99371 | 121.13843 | 2143 ft | 155 kts | 47° |
| 2026-04-24 03:38 | 25.00070 | 121.14729 | 1918 ft | 150 kts | 49° |
| 2026-04-24 03:38 | 25.00745 | 121.15585 | 1736 ft | 147 kts | 50° |
| 2026-04-24 03:38 | 25.01395 | 121.16411 | 1531 ft | 138 kts | 50° |
| 2026-04-24 03:38 | 25.02002 | 121.17184 | 1373 ft | 130 kts | 48° |
| 2026-04-24 03:39 | 25.02590 | 121.17928 | 1199 ft | 128 kts | 47° |
| 2026-04-24 03:39 | 25.03175 | 121.18667 | 1036 ft | 128 kts | 49° |
| 2026-04-24 03:39 | 25.03762 | 121.19414 | 856 ft | 129 kts | 46° |
| 2026-04-24 03:39 | 25.04345 | 121.20161 | 689 ft | 127 kts | 47° |
| 2026-04-24 03:40 | 25.04921 | 121.20893 | 493 ft | 126 kts | 46° |
| 2026-04-24 03:40 | 25.05505 | 121.21613 | 338 ft | 126 kts | 48° |
| 2026-04-24 03:40 | 25.06084 | 121.22360 | 179 ft | 128 kts | 46° |
| 2026-04-24 03:40 | 25.06662 | 121.23090 | 99 ft | 122 kts | 48° |
| 2026-04-24 03:41 | 25.07052 | 121.23581 | 101 ft | 37 kts | 48° |
| 2026-04-24 03:41 | 25.07186 | 121.23692 | 103 ft | 19 kts | 25° |
| 2026-04-24 03:41 | 25.07301 | 121.23739 | 104 ft | 16 kts | 18° |
| 2026-04-24 03:41 | 25.07390 | 121.23772 | 104 ft | 12 kts | 18° |
| 2026-04-24 03:42 | 25.07464 | 121.23792 | 105 ft | 10 kts | 1° |
| 2026-04-24 03:42 | 25.07521 | 121.23772 | 106 ft | 8 kts | 327° |
| 2026-04-24 03:42 | 25.07560 | 121.23734 | 104 ft | 7 kts | 318° |
| 2026-04-24 03:42 | 25.07600 | 121.23699 | 105 ft | 7 kts | 330° |
| 2026-04-24 03:43 | 25.07643 | 121.23699 | 105 ft | 6 kts | 24° |
| 2026-04-24 03:43 | 25.07675 | 121.23730 | 105 ft | 6 kts | 48° |
| 2026-04-24 03:43 | 25.07706 | 121.23770 | 104 ft | 7 kts | 49° |
| 2026-04-24 03:43 | 25.07741 | 121.23815 | 105 ft | 9 kts | 49° |
| 2026-04-24 03:44 | 25.07789 | 121.23876 | 105 ft | 11 kts | 49° |
| 2026-04-24 03:44 | 25.07842 | 121.23915 | 106 ft | 8 kts | 359° |
| 2026-04-24 03:44 | 25.07884 | 121.23889 | 104 ft | 7 kts | 317° |
| 2026-04-24 03:44 | 25.07915 | 121.23860 | 107 ft | 3 kts | 319° |
| 2026-04-24 03:45 | 25.07928 | 121.23846 | 106 ft | 1 kts | 319° |
| 2026-04-24 03:45 | 25.07929 | 121.23846 | 106 ft | 0 kts | 319° |
| 2026-04-24 03:45 | 25.07930 | 121.23845 | 107 ft | 0 kts | 319° |
| 2026-04-24 03:46 | 25.07931 | 121.23843 | 105 ft | 0 kts | 319° |